Time;durP1;ratioP1;P1;durP2;ratioP2;P2;SDS_P1;SDS_P2;PMS_P1;PMS_P2;Temp;Humidity;BMP_temperature;BMP_pressure;BME280_temperature;BME280_humidity;BME280_pressure;Samples;Min_cycle;Max_cycle;Signal;HPM_P1;HPM_P2
2024/02/01 00:04:14;;;;;;;16.08;9.25;;;;;;;5.22;90.23;101120.69;10464692;28;20058;-80
2024/02/01 00:09:18;;;;;;;15.63;9.77;;;;;;;5.03;94.29;101105.56;10426053;28;20050;-79
2024/02/01 00:14:23;;;;;;;14.15;8.25;;;;;;;4.94;100.00;101113.94;10468940;28;20032;-82
2024/02/01 00:19:27;;;;;;;24.45;12.27;;;;;;;4.80;100.00;101108.38;10478614;28;20044;-81
2024/02/01 00:24:30;;;;;;;23.48;13.60;;;;;;;4.47;100.00;101108.09;10466279;28;20048;-80
2024/02/01 00:29:38;;;;;;;26.02;17.67;;;;;;;4.39;100.00;101097.81;10490684;28;20039;-81
2024/02/01 00:34:50;;;;;;;29.38;14.07;;;;;;;4.25;100.00;101092.19;10462630;28;20127;-81
2024/02/01 00:39:54;;;;;;;28.33;16.17;;;;;;;4.01;100.00;101092.34;10460442;28;20150;-79
2024/02/01 00:44:59;;;;;;;29.13;14.98;;;;;;;4.31;100.00;101105.25;10481371;28;20036;-82
2024/02/01 00:50:02;;;;;;;28.15;13.95;;;;;;;4.06;100.00;101103.66;10442581;28;20115;-80
2024/02/01 00:55:07;;;;;;;27.33;16.60;;;;;;;4.02;100.00;101102.03;10422117;28;20155;-80
2024/02/01 01:00:13;;;;;;;28.75;16.15;;;;;;;4.03;100.00;101113.53;10425503;28;20045;-81
2024/02/01 01:05:42;;;;;;;38.05;19.52;;;;;;;4.17;100.00;101085.44;10454996;28;20083;-79
2024/02/01 01:10:47;;;;;;;38.30;21.70;;;;;;;4.02;100.00;101109.16;10469527;28;20044;-81
2024/02/01 01:15:52;;;;;;;32.67;19.00;;;;;;;4.01;100.00;101088.81;10483961;28;21089;-80
2024/02/01 01:20:59;;;;;;;20.63;11.30;;;;;;;4.09;100.00;101100.84;10454311;28;20052;-82
2024/02/01 01:26:03;;;;;;;30.10;13.10;;;;;;;4.18;100.00;101089.81;10472162;28;20040;-82
2024/02/01 01:31:08;;;;;;;23.30;14.27;;;;;;;3.94;100.00;101088.19;10462368;28;20049;-82
2024/02/01 01:36:14;;;;;;;31.52;17.77;;;;;;;4.11;100.00;101084.81;10482579;28;20049;-82
2024/02/01 01:41:19;;;;;;;21.60;13.00;;;;;;;3.88;100.00;101080.50;10457926;28;20116;-82
2024/02/01 01:46:26;;;;;;;34.88;19.75;;;;;;;4.08;100.00;101087.59;10471697;28;20060;-80
2024/02/01 01:51:57;;;;;;;38.03;23.00;;;;;;;3.92;100.00;101067.00;10453578;28;20048;-78
2024/02/01 01:57:01;;;;;;;41.20;23.70;;;;;;;4.11;100.00;101061.78;10428489;28;20130;-82
2024/02/01 02:02:09;;;;;;;35.13;22.80;;;;;;;4.07;100.00;101060.16;10470519;28;20056;-79
2024/02/01 02:07:13;;;;;;;30.35;18.77;;;;;;;4.14;100.00;101058.97;10462744;28;20101;-80
2024/02/01 02:12:20;;;;;;;32.47;20.50;;;;;;;4.29;100.00;101025.50;10463438;28;20041;-80
2024/02/01 02:17:25;;;;;;;30.15;17.05;;;;;;;4.23;100.00;101047.06;10467635;28;20065;-80
2024/02/01 02:22:35;;;;;;;36.88;20.40;;;;;;;4.42;100.00;101052.44;10481275;28;20049;-81
2024/02/01 02:27:39;;;;;;;16.63;11.18;;;;;;;4.26;100.00;101054.06;10452244;28;20049;-79
2024/02/01 02:32:44;;;;;;;31.08;19.83;;;;;;;4.32;100.00;101049.31;10478902;28;20058;-79
2024/02/01 02:37:49;;;;;;;43.25;24.70;;;;;;;4.46;100.00;101055.81;10447042;28;20044;-80
2024/02/01 02:42:52;;;;;;;45.28;27.02;;;;;;;4.61;100.00;101055.13;10495794;28;20040;-80
2024/02/01 02:47:57;;;;;;;33.53;22.00;;;;;;;4.60;100.00;101054.25;10438542;28;21003;-79
2024/02/01 02:53:02;;;;;;;40.80;24.45;;;;;;;4.71;100.00;101055.56;10449407;28;20090;-78
2024/02/01 02:58:05;;;;;;;41.47;26.65;;;;;;;4.74;100.00;101052.75;10468420;28;21176;-80
2024/02/01 03:03:08;;;;;;;33.95;20.23;;;;;;;4.52;100.00;101031.59;10454008;28;20045;-79
2024/02/01 03:08:13;;;;;;;36.40;23.63;;;;;;;4.85;100.00;101042.47;10466471;28;20076;-80
2024/02/01 03:13:16;;;;;;;39.17;25.13;;;;;;;4.97;100.00;101049.91;10485318;28;20067;-79
2024/02/01 03:18:19;;;;;;;32.90;20.23;;;;;;;4.67;100.00;101051.34;10455080;28;20052;-80
2024/02/01 03:23:24;;;;;;;38.40;22.55;;;;;;;4.82;100.00;101067.44;10481485;28;20045;-80
2024/02/01 03:28:30;;;;;;;35.90;22.77;;;;;;;4.82;100.00;101050.59;10462795;28;20583;-79
2024/02/01 03:33:38;;;;;;;31.98;22.52;;;;;;;5.44;100.00;101081.41;10446399;28;20056;-77
2024/02/01 03:38:43;;;;;;;28.20;17.98;;;;;;;5.18;100.00;101087.97;10465431;28;20055;-79
2024/02/01 03:43:48;;;;;;;33.35;17.58;;;;;;;4.93;100.00;101084.72;10473992;28;20041;-78
2024/02/01 03:48:51;;;;;;;22.85;12.48;;;;;;;5.00;100.00;101095.06;10489915;28;20040;-79
2024/02/01 03:53:56;;;;;;;35.75;22.17;;;;;;;5.22;100.00;101088.72;10466108;28;20053;-79
2024/02/01 03:59:01;;;;;;;33.95;22.23;;;;;;;5.16;100.00;101079.22;10490805;28;20055;-78
2024/02/01 04:04:05;;;;;;;26.75;17.50;;;;;;;4.97;100.00;101075.66;10471777;28;20040;-78
2024/02/01 04:09:10;;;;;;;29.85;17.67;;;;;;;5.23;100.00;101080.66;10479007;28;20057;-79
2024/02/01 04:14:13;;;;;;;24.95;15.68;;;;;;;5.27;100.00;101087.56;10475127;28;20049;-77
2024/02/01 04:19:16;;;;;;;27.55;17.85;;;;;;;5.17;100.00;101091.59;10472013;28;20066;-79
2024/02/01 04:24:21;;;;;;;29.35;16.35;;;;;;;5.52;100.00;101105.03;10452522;28;20924;-78
2024/02/01 04:29:27;;;;;;;30.17;19.27;;;;;;;5.30;100.00;101109.69;10449933;28;20088;-78
2024/02/01 04:34:30;;;;;;;31.42;20.30;;;;;;;5.41;100.00;101105.56;10448993;28;21146;-79
2024/02/01 04:39:34;;;;;;;31.00;22.05;;;;;;;5.70;100.00;101122.81;10414689;28;20071;-82
2024/02/01 04:44:37;;;;;;;33.47;22.10;;;;;;;5.91;100.00;101122.69;10416423;28;20136;-80
2024/02/01 04:49:40;;;;;;;31.02;19.13;;;;;;;5.59;100.00;101135.78;10412098;28;20045;-82
2024/02/01 04:54:45;;;;;;;28.20;16.88;;;;;;;5.57;100.00;101160.75;10416755;28;20524;-79
2024/02/01 04:59:48;;;;;;;30.73;18.58;;;;;;;5.60;100.00;101163.31;10444322;28;20045;-81
2024/02/01 05:04:51;;;;;;;29.20;18.70;;;;;;;5.78;100.00;101157.06;10431011;28;20099;-81
2024/02/01 05:09:56;;;;;;;30.60;19.98;;;;;;;5.68;100.00;101156.66;10432121;28;20112;-81
2024/02/01 05:14:59;;;;;;;26.75;18.42;;;;;;;5.85;100.00;101163.00;10431339;28;20044;-80
2024/02/01 05:20:08;;;;;;;29.73;17.48;;;;;;;5.83;100.00;101167.53;10437685;28;21188;-82
2024/02/01 05:25:15;;;;;;;28.73;18.17;;;;;;;5.62;100.00;101170.31;10431919;28;20075;-80
2024/02/01 05:30:20;;;;;;;21.73;13.88;;;;;;;5.81;100.00;101182.72;10426186;28;20132;-81
2024/02/01 05:35:27;;;;;;;25.45;16.50;;;;;;;5.82;100.00;101193.31;10428367;28;20064;-81
2024/02/01 05:40:33;;;;;;;34.80;16.58;;;;;;;5.94;100.00;101210.53;10442454;28;20047;-81
2024/02/01 05:45:36;;;;;;;26.48;15.70;;;;;;;5.56;100.00;101223.88;10454704;28;20069;-79
2024/02/01 05:50:40;;;;;;;23.80;15.10;;;;;;;5.56;100.00;101237.19;10435477;28;20052;-79
2024/02/01 05:55:46;;;;;;;23.35;13.15;;;;;;;5.62;100.00;101241.38;10431931;28;21277;-78
2024/02/01 06:00:50;;;;;;;18.58;12.20;;;;;;;5.77;100.00;101251.34;10437753;28;20050;-80
2024/02/01 06:05:53;;;;;;;16.38;8.88;;;;;;;5.55;100.00;101256.81;10442022;28;20466;-81
2024/02/01 06:10:57;;;;;;;14.77;9.02;;;;;;;5.52;100.00;101290.75;10441798;28;20056;-80
2024/02/01 06:16:00;;;;;;;14.80;9.80;;;;;;;5.68;100.00;101299.78;10457332;28;20048;-79
2024/02/01 06:21:03;;;;;;;13.45;8.05;;;;;;;5.34;100.00;101300.41;10429120;28;20048;-80
2024/02/01 06:26:07;;;;;;;15.20;7.88;;;;;;;5.55;100.00;101319.91;10428645;28;20128;-80
2024/02/01 06:31:13;;;;;;;18.17;7.30;;;;;;;5.51;100.00;101327.16;10436913;28;20053;-82
2024/02/01 06:36:19;;;;;;;13.70;5.00;;;;;;;5.42;100.00;101335.59;10443686;28;20487;-80
2024/02/01 06:41:38;;;;;;;21.60;5.13;;;;;;;5.09;100.00;101348.56;10427534;28;20063;-80
2024/02/01 06:47:06;;;;;;;10.60;3.95;;;;;;;4.86;100.00;101360.19;10432578;28;20055;-81
2024/02/01 06:52:24;;;;;;;19.45;4.57;;;;;;;5.27;100.00;101371.78;10435725;28;21156;-80
2024/02/01 06:57:44;;;;;;;21.02;5.22;;;;;;;4.95;100.00;101383.75;10444323;28;20049;-80
2024/02/01 07:03:01;;;;;;;22.38;4.50;;;;;;;5.06;100.00;101403.69;10412900;28;21203;-81
2024/02/01 07:08:13;;;;;;;18.80;4.47;;;;;;;5.11;100.00;101407.97;10443255;28;20079;-80
2024/02/01 07:13:34;;;;;;;18.98;3.90;;;;;;;4.75;100.00;101419.19;10442132;28;20049;-81
2024/02/01 07:18:43;;;;;;;20.52;3.15;;;;;;;4.70;100.00;101430.00;10454774;28;20052;-81
2024/02/01 07:23:56;;;;;;;19.65;3.17;;;;;;;4.35;100.00;101442.03;10433545;28;20051;-81
2024/02/01 08:01:17;;;;;;;34.40;4.00;;;;;;;4.46;100.00;101498.34;10433001;28;20048;-79
2024/02/01 08:11:42;;;;;;;25.83;3.47;;;;;;;4.68;100.00;101492.22;10454978;28;20151;-79
2024/02/01 08:16:48;;;;;;;40.03;7.78;;;;;;;5.18;100.00;101498.22;10462697;28;20095;-83
2024/02/01 08:21:53;;;;;;;38.00;5.88;;;;;;;4.63;100.00;101513.69;10431352;28;20175;-82
2024/02/01 08:26:57;;;;;;;24.77;4.35;;;;;;;4.97;100.00;101533.69;10414155;28;20053;-80
2024/02/01 08:32:01;;;;;;;25.77;4.72;;;;;;;5.25;100.00;101525.47;10403905;28;20056;-81
2024/02/01 08:37:09;;;;;;;22.67;3.90;;;;;;;5.23;100.00;101538.00;10443853;28;21188;-83
2024/02/01 08:42:13;;;;;;;23.20;4.32;;;;;;;5.23;100.00;101557.50;10427437;28;20048;-81
2024/02/01 08:47:18;;;;;;;33.13;4.60;;;;;;;5.62;100.00;101553.28;10448947;28;20063;-81
2024/02/01 08:52:21;;;;;;;34.47;5.85;;;;;;;5.65;100.00;101553.13;10453075;28;20053;-83
2024/02/01 08:57:25;;;;;;;23.48;4.30;;;;;;;5.65;100.00;101566.47;10478379;28;20075;-80
2024/02/01 09:02:29;;;;;;;24.98;3.78;;;;;;;6.18;100.00;101568.66;10454292;28;20049;-83
2024/02/01 09:07:34;;;;;;;25.40;3.22;;;;;;;6.06;96.94;101572.75;10441926;28;20061;-81
2024/02/01 09:12:37;;;;;;;26.20;4.63;;;;;;;6.12;100.00;101582.28;10424996;28;20098;-83
2024/02/01 09:17:46;;;;;;;28.27;4.47;;;;;;;5.65;97.68;101590.47;10442860;28;20064;-83
2024/02/01 09:22:51;;;;;;;29.90;4.70;;;;;;;5.55;100.00;101592.66;10470506;28;21180;-82
2024/02/01 09:27:54;;;;;;;34.00;3.97;;;;;;;6.57;94.14;101595.38;10456788;28;21124;-82
2024/02/01 09:32:59;;;;;;;20.42;4.10;;;;;;;5.69;95.76;101594.75;10466474;28;20775;-79
2024/02/01 09:38:02;;;;;;;21.40;5.38;;;;;;;5.95;97.55;101598.97;10439215;28;20306;-82
2024/02/01 09:43:05;;;;;;;28.55;4.32;;;;;;;6.12;97.62;101607.16;10425657;28;20052;-79
2024/02/01 09:48:15;;;;;;;26.20;3.80;;;;;;;6.44;98.36;101617.34;10435081;28;20051;-79
2024/02/01 09:53:22;;;;;;;20.33;3.70;;;;;;;6.18;98.56;101630.91;10456027;28;20114;-79
2024/02/01 09:58:26;;;;;;;20.67;4.15;;;;;;;6.21;98.96;101645.03;10449406;28;20052;-80
2024/02/01 10:03:31;;;;;;;21.27;4.68;;;;;;;5.91;95.44;101654.25;10469217;28;21140;-80
2024/02/01 10:08:36;;;;;;;21.90;3.72;;;;;;;5.26;99.02;101676.41;10458101;28;20089;-80
2024/02/01 10:13:39;;;;;;;37.13;5.53;;;;;;;6.20;100.00;101669.97;10457036;28;20111;-79
2024/02/01 10:18:52;;;;;;;27.92;5.45;;;;;;;5.83;97.74;101675.03;10448408;28;20183;-80
2024/02/01 10:24:04;;;;;;;37.35;6.80;;;;;;;5.95;96.45;101679.00;10470922;28;20047;-79
2024/02/01 10:29:08;;;;;;;28.25;6.03;;;;;;;5.92;96.91;101682.69;10472741;28;20052;-80
2024/02/01 10:34:15;;;;;;;29.20;4.50;;;;;;;6.23;92.05;101675.22;10457374;28;20060;-80
2024/02/01 10:39:22;;;;;;;26.27;4.15;;;;;;;6.58;91.57;101660.31;10451971;28;20257;-80
2024/02/01 10:44:32;;;;;;;32.33;5.70;;;;;;;6.72;91.91;101683.75;10410922;28;20892;-81
2024/02/01 10:49:42;;;;;;;34.50;4.68;;;;;;;6.52;90.36;101684.63;10444647;28;20071;-79
2024/02/01 10:54:47;;;;;;;24.70;4.25;;;;;;;7.04;86.05;101685.00;10420808;28;20056;-81
2024/02/01 10:59:51;;;;;;;23.90;3.70;;;;;;;7.25;82.94;101684.03;10456495;28;20134;-80
2024/02/01 11:04:56;;;;;;;31.33;5.15;;;;;;;9.19;84.24;101685.00;10452039;28;20047;-80
2024/02/01 11:09:59;;;;;;;27.33;4.68;;;;;;;9.14;71.95;101663.81;10448906;28;20048;-80
2024/02/01 11:15:05;;;;;;;26.98;3.95;;;;;;;11.13;77.44;101659.28;10460564;28;20059;-79
2024/02/01 11:20:12;;;;;;;32.00;5.30;;;;;;;10.23;65.72;101656.72;10458413;28;20841;-80
2024/02/01 11:25:16;;;;;;;27.13;4.97;;;;;;;7.94;74.24;101671.81;10463605;28;20049;-80
2024/02/01 11:30:26;;;;;;;25.33;4.90;;;;;;;7.76;75.04;101662.88;10463289;28;20044;-79
2024/02/01 11:35:32;;;;;;;25.38;4.63;;;;;;;8.55;71.08;101657.13;10467770;28;20048;-79
2024/02/01 11:40:35;;;;;;;37.10;5.45;;;;;;;8.66;68.04;101653.91;10449586;28;20057;-80
2024/02/01 11:45:39;;;;;;;24.33;3.50;;;;;;;7.37;72.42;101663.00;10454101;28;20052;-80
2024/02/01 11:50:44;;;;;;;18.63;3.88;;;;;;;7.46;75.01;101663.44;10440034;28;20061;-80
2024/02/01 11:55:47;;;;;;;16.20;3.53;;;;;;;8.58;68.82;101662.34;10438002;28;20404;-81
2024/02/01 12:00:55;;;;;;;23.42;3.80;;;;;;;8.57;69.32;101660.63;10445057;28;20052;-81
2024/02/01 12:06:14;;;;;;;22.98;4.72;;;;;;;10.08;63.48;101666.56;10437832;28;21317;-81
2024/02/01 12:11:17;;;;;;;24.27;5.22;;;;;;;12.56;56.22;101675.00;10433794;28;20055;-79
2024/02/01 12:16:25;;;;;;;25.73;4.13;;;;;;;12.00;57.29;101676.13;10422674;28;20044;-81
2024/02/01 12:21:31;;;;;;;19.08;4.28;;;;;;;12.53;52.59;101672.50;10451814;28;20051;-80
2024/02/01 12:26:34;;;;;;;15.25;3.55;;;;;;;12.49;54.36;101683.59;10446026;28;20052;-81
2024/02/01 12:31:38;;;;;;;19.98;3.53;;;;;;;11.28;55.84;101676.28;10429724;28;20123;-81
2024/02/01 12:36:43;;;;;;;19.80;4.40;;;;;;;10.10;59.07;101676.28;10428198;28;20668;-79
2024/02/01 12:41:47;;;;;;;16.70;5.20;;;;;;;10.69;56.37;101681.69;10414837;28;20076;-80
2024/02/01 12:46:50;;;;;;;20.20;4.55;;;;;;;12.34;52.79;101685.50;10439927;28;20041;-82
2024/02/01 12:51:55;;;;;;;22.10;3.92;;;;;;;12.17;54.86;101675.84;10444610;28;20709;-80
2024/02/01 12:56:58;;;;;;;18.02;3.05;;;;;;;11.67;53.26;101697.06;10440699;28;20041;-81
2024/02/01 13:02:01;;;;;;;19.52;3.03;;;;;;;9.66;61.55;101694.91;10440785;28;20472;-81
2024/02/01 13:07:11;;;;;;;16.02;2.90;;;;;;;7.13;68.75;101684.59;10439492;28;20052;-81
2024/02/01 13:12:21;;;;;;;19.02;2.72;;;;;;;7.50;68.92;101681.06;10429381;28;20578;-82
2024/02/01 13:17:26;;;;;;;27.58;4.65;;;;;;;8.21;67.83;101685.63;10435600;28;20085;-79
2024/02/01 13:22:31;;;;;;;18.02;3.75;;;;;;;9.18;64.05;101704.72;10414777;28;20070;-80
2024/02/01 13:27:34;;;;;;;24.23;4.35;;;;;;;9.03;64.36;101718.00;10408222;28;20114;-79
2024/02/01 13:32:37;;;;;;;23.70;3.65;;;;;;;8.25;66.18;101721.13;10406320;28;20508;-81
2024/02/01 13:37:46;;;;;;;26.08;3.92;;;;;;;7.42;68.81;101709.09;10401782;28;20100;-79
2024/02/01 13:42:52;;;;;;;20.35;4.47;;;;;;;7.29;72.04;101706.13;10438265;28;20068;-80
2024/02/01 13:47:56;;;;;;;20.13;4.72;;;;;;;8.26;67.89;101707.69;10439331;28;20045;-82
2024/02/01 13:53:00;;;;;;;25.45;4.05;;;;;;;8.45;65.53;101710.31;10427795;28;20040;-81
2024/02/01 13:58:04;;;;;;;24.17;4.07;;;;;;;8.79;63.01;101719.28;10420235;28;20123;-80
2024/02/01 14:03:07;;;;;;;26.77;3.85;;;;;;;8.15;65.45;101729.63;10406772;28;20074;-81
2024/02/01 14:08:11;;;;;;;23.48;4.07;;;;;;;7.47;69.68;101728.47;10454719;28;20056;-81
2024/02/01 14:13:14;;;;;;;16.08;3.15;;;;;;;7.49;68.25;101737.28;10447672;28;20052;-82
2024/02/01 14:18:17;;;;;;;21.25;3.58;;;;;;;8.09;68.26;101727.28;10432094;28;20048;-81
2024/02/01 14:23:22;;;;;;;22.50;3.30;;;;;;;8.42;64.55;101739.03;10424316;28;20052;-80
2024/02/01 14:28:27;;;;;;;16.58;2.80;;;;;;;8.11;66.31;101737.88;10442819;28;20048;-80
2024/02/01 14:33:30;;;;;;;20.15;3.67;;;;;;;8.20;65.40;101725.84;10422913;28;21531;-82
2024/02/01 14:38:35;;;;;;;17.63;3.00;;;;;;;8.63;64.13;101731.75;10441519;28;20189;-80
2024/02/01 14:43:39;;;;;;;20.90;3.80;;;;;;;8.21;63.08;101746.34;10445960;28;20051;-81
2024/02/01 14:48:42;;;;;;;15.07;2.20;;;;;;;7.11;66.85;101742.59;10423984;28;20045;-79
2024/02/01 14:53:46;;;;;;;16.15;3.03;;;;;;;7.49;65.25;101740.84;10412042;28;20640;-79
2024/02/01 14:58:49;;;;;;;19.10;4.22;;;;;;;8.71;61.91;101759.00;10418917;28;20179;-80
2024/02/01 15:03:54;;;;;;;21.75;3.50;;;;;;;9.31;61.00;101775.50;10428765;28;20059;-81
2024/02/01 15:08:59;;;;;;;21.45;3.30;;;;;;;8.43;62.77;101781.81;10467052;28;20045;-81
2024/02/01 15:14:02;;;;;;;25.90;4.45;;;;;;;7.97;65.21;101783.19;10417913;28;20056;-82
2024/02/01 15:19:08;;;;;;;12.82;2.70;;;;;;;7.38;68.94;101787.72;10444742;28;20128;-81
2024/02/01 15:24:14;;;;;;;13.85;3.22;;;;;;;7.53;69.57;101791.50;10415534;28;20087;-81
2024/02/01 15:29:18;;;;;;;22.35;3.25;;;;;;;7.00;71.05;101799.19;10420618;28;21122;-79
2024/02/01 15:34:21;;;;;;;21.23;3.45;;;;;;;7.00;71.02;101791.16;10427905;28;20053;-79
2024/02/01 15:39:26;;;;;;;15.10;3.17;;;;;;;6.63;71.01;101803.38;10437279;28;20084;-81
2024/02/01 15:44:30;;;;;;;18.00;4.07;;;;;;;6.45;73.98;101805.97;10448357;28;20048;-81
2024/02/01 15:49:33;;;;;;;24.50;4.28;;;;;;;6.16;76.36;101798.19;10452853;28;20511;-79
2024/02/01 15:54:38;;;;;;;26.73;4.13;;;;;;;5.90;77.11;101801.91;10433925;28;20052;-77
2024/02/01 15:59:41;;;;;;;10.35;2.40;;;;;;;6.09;77.25;101801.19;10452761;28;20059;-79
2024/02/01 16:04:44;;;;;;;27.65;3.65;;;;;;;5.95;77.54;101805.25;10417421;28;20117;-78
2024/02/01 16:09:49;;;;;;;15.20;3.15;;;;;;;5.92;77.91;101816.06;10431840;28;20060;-79
2024/02/01 16:14:52;;;;;;;16.58;3.95;;;;;;;5.97;78.12;101815.00;10431071;28;20049;-82
2024/02/01 16:19:55;;;;;;;18.45;3.20;;;;;;;5.63;79.65;101814.50;10436266;28;20052;-79
2024/02/01 16:25:00;;;;;;;20.75;3.88;;;;;;;5.50;80.71;101814.06;10454762;28;20052;-80
2024/02/01 16:30:21;;;;;;;22.23;3.78;;;;;;;5.68;79.75;101817.00;10459748;28;20158;-81
2024/02/01 16:35:48;;;;;;;26.10;3.97;;;;;;;5.06;83.24;101848.50;10458270;28;20126;-81
2024/02/01 16:40:53;;;;;;;22.08;4.15;;;;;;;5.24;82.49;101846.16;10451744;28;20178;-81
2024/02/01 16:45:56;;;;;;;26.00;3.10;;;;;;;5.31;81.67;101847.66;10459006;28;20057;-80
2024/02/01 16:50:59;;;;;;;24.30;3.95;;;;;;;5.18;81.71;101844.53;10438363;28;20041;-79
2024/02/01 16:56:06;;;;;;;26.35;6.22;;;;;;;5.03;83.62;101845.97;10448621;28;20117;-81
2024/02/01 17:01:36;;;;;;;18.45;3.55;;;;;;;4.96;84.40;101849.72;10438400;28;20076;-82
2024/02/01 17:06:39;;;;;;;25.45;3.88;;;;;;;4.78;85.33;101858.34;10446305;28;20095;-80
2024/02/01 17:11:47;;;;;;;24.70;5.07;;;;;;;5.15;83.99;101865.97;10444463;28;20122;-81
2024/02/01 17:16:58;;;;;;;27.85;5.03;;;;;;;4.95;84.48;101863.97;10444478;28;20704;-80
2024/02/01 17:22:08;;;;;;;34.85;9.35;;;;;;;4.87;85.29;101854.50;10431035;28;20052;-81
2024/02/01 17:27:15;;;;;;;17.77;4.55;;;;;;;4.70;86.23;101857.72;10455058;28;20064;-80
2024/02/01 17:32:18;;;;;;;22.63;4.72;;;;;;;4.73;86.67;101852.28;10433878;28;20395;-79
2024/02/01 17:37:34;;;;;;;22.50;4.22;;;;;;;4.64;87.33;101852.63;10430970;28;20045;-80
2024/02/01 17:42:39;;;;;;;29.05;3.97;;;;;;;4.57;87.96;101852.78;10442363;28;20056;-79
2024/02/01 17:47:43;;;;;;;25.27;3.75;;;;;;;4.25;90.01;101850.28;10427544;28;20048;-78
2024/02/01 17:52:50;;;;;;;34.33;5.30;;;;;;;4.64;87.79;101866.78;10431927;28;20053;-81
2024/02/01 17:57:56;;;;;;;23.80;3.58;;;;;;;4.25;89.84;101867.16;10456235;28;20053;-80
2024/02/01 18:03:00;;;;;;;27.30;4.13;;;;;;;4.35;89.67;101865.03;10463883;28;20045;-80
2024/02/01 18:08:08;;;;;;;28.50;5.10;;;;;;;4.39;89.86;101864.91;10450887;28;20064;-80
2024/02/01 18:13:14;;;;;;;27.80;9.38;;;;;;;4.41;89.76;101883.47;10447823;28;20053;-81
2024/02/01 18:18:23;;;;;;;25.13;5.80;;;;;;;4.26;91.46;101891.94;10463190;28;20059;-80
2024/02/01 18:23:28;;;;;;;31.33;5.50;;;;;;;4.35;91.53;101884.53;10467799;28;20048;-80
2024/02/01 18:28:33;;;;;;;21.50;5.43;;;;;;;4.30;90.75;101888.25;10460125;28;20683;-80
2024/02/01 18:33:36;;;;;;;23.58;5.20;;;;;;;4.25;91.69;101874.22;10448103;28;20044;-81
2024/02/01 18:39:09;;;;;;;27.40;4.68;;;;;;;4.36;90.91;101877.41;10444227;28;20102;-79
2024/02/01 18:44:23;;;;;;;24.30;4.95;;;;;;;4.15;92.53;101881.63;10439442;28;20125;-79
2024/02/01 18:49:28;;;;;;;27.52;4.47;;;;;;;4.12;93.10;101882.59;10437266;28;20154;-79
2024/02/01 18:54:37;;;;;;;27.83;5.07;;;;;;;3.95;95.08;101879.59;10419837;28;20056;-80
2024/02/01 19:00:03;;;;;;;20.90;4.75;;;;;;;4.39;91.75;101880.88;10436461;28;20041;-79
2024/02/01 19:05:07;;;;;;;35.53;8.65;;;;;;;4.51;90.53;101894.72;10453053;28;20071;-80
2024/02/01 19:10:33;;;;;;;29.98;5.72;;;;;;;4.40;90.61;101900.38;10464341;28;20112;-78
2024/02/01 19:15:49;;;;;;;29.73;7.68;;;;;;;4.07;93.31;101889.84;10441878;28;20041;-79
2024/02/01 19:20:54;;;;;;;24.50;5.25;;;;;;;3.93;94.96;101887.59;10454359;28;20515;-80
2024/02/01 19:25:57;;;;;;;28.95;5.53;;;;;;;4.11;92.98;101886.19;10465873;28;20040;-80
2024/02/01 19:31:02;;;;;;;26.35;4.55;;;;;;;3.88;94.85;101885.97;10466454;28;20063;-81
2024/02/01 19:36:16;;;;;;;23.77;5.40;;;;;;;3.85;95.62;101886.06;10447006;28;20121;-81
2024/02/01 19:41:19;;;;;;;30.45;5.10;;;;;;;3.59;97.88;101878.84;10440342;28;20109;-79
2024/02/01 19:46:24;;;;;;;26.05;5.03;;;;;;;3.64;97.78;101883.09;10453411;28;20097;-80
2024/02/01 19:51:28;;;;;;;33.92;6.25;;;;;;;3.72;96.59;101888.19;10462773;28;20053;-80
2024/02/01 19:56:31;;;;;;;24.17;4.78;;;;;;;3.63;97.74;101889.34;10452294;28;20059;-80
2024/02/01 20:01:36;;;;;;;27.83;4.88;;;;;;;3.71;97.16;101886.47;10438128;28;20049;-80
2024/02/01 20:06:39;;;;;;;32.05;6.43;;;;;;;3.75;97.14;101876.63;10447582;28;21148;-81
2024/02/01 20:11:42;;;;;;;27.05;5.13;;;;;;;3.93;94.32;101881.41;10452924;28;20049;-80
2024/02/01 20:16:46;;;;;;;22.15;4.93;;;;;;;3.77;95.44;101878.31;10413612;28;20118;-81
2024/02/01 20:21:49;;;;;;;30.45;5.50;;;;;;;3.78;95.70;101880.03;10415311;28;20142;-80
2024/02/01 20:26:52;;;;;;;38.97;5.70;;;;;;;3.68;96.25;101879.47;10443173;28;20049;-79
2024/02/01 20:31:57;;;;;;;25.13;5.95;;;;;;;3.54;97.96;101886.06;10454002;28;20109;-78
2024/02/01 20:37:04;;;;;;;29.08;5.75;;;;;;;3.50;98.52;101891.47;10465110;28;20048;-81
2024/02/01 20:42:11;;;;;;;31.48;5.13;;;;;;;3.49;99.11;101887.06;10455796;28;20052;-81
2024/02/01 20:47:19;;;;;;;27.65;5.70;;;;;;;3.38;99.40;101882.97;10435504;28;20323;-80
2024/02/01 20:52:26;;;;;;;26.52;4.70;;;;;;;3.25;100.00;101885.94;10441257;28;20323;-80
2024/02/01 20:57:31;;;;;;;30.90;6.43;;;;;;;3.31;100.00;101892.00;10451271;28;21217;-78
2024/02/01 21:03:01;;;;;;;35.03;5.75;;;;;;;3.03;100.00;101900.69;10440499;28;21199;-81
2024/02/01 21:08:11;;;;;;;23.17;5.32;;;;;;;3.02;100.00;101898.97;10441737;28;20079;-81
2024/02/01 21:13:14;;;;;;;16.13;4.85;;;;;;;3.09;100.00;101903.19;10433633;28;20200;-80
2024/02/01 21:18:20;;;;;;;19.90;4.13;;;;;;;2.87;100.00;101900.19;10428935;28;20057;-79
2024/02/01 21:23:55;;;;;;;25.90;4.75;;;;;;;3.10;100.00;101910.25;10455037;28;20219;-80
2024/02/01 21:29:01;;;;;;;26.90;6.07;;;;;;;3.03;100.00;101906.88;10359153;28;20044;-79
2024/02/01 21:34:07;;;;;;;23.98;5.43;;;;;;;2.94;100.00;101914.22;10439631;28;20118;-79
2024/02/01 21:39:23;;;;;;;21.30;6.22;;;;;;;3.04;100.00;101907.75;10456657;28;20713;-80
2024/02/01 21:44:26;;;;;;;23.15;4.35;;;;;;;3.19;100.00;101904.69;10475031;28;20057;-80
2024/02/01 21:49:33;;;;;;;36.55;7.22;;;;;;;3.40;100.00;101905.94;10435984;28;20052;-80
2024/02/01 21:54:37;;;;;;;22.67;4.45;;;;;;;3.28;100.00;101908.91;10462549;28;20066;-81
2024/02/01 21:59:40;;;;;;;30.10;5.80;;;;;;;3.49;100.00;101907.47;10458536;28;20696;-82
2024/02/01 22:04:44;;;;;;;31.67;6.95;;;;;;;3.38;100.00;101898.91;10456987;28;21177;-81
2024/02/01 22:09:47;;;;;;;30.17;5.88;;;;;;;3.65;100.00;101890.19;10430545;28;20041;-81
2024/02/01 22:14:50;;;;;;;25.52;6.47;;;;;;;3.77;99.73;101902.25;10436878;28;20052;-80
2024/02/01 22:19:55;;;;;;;36.22;6.97;;;;;;;3.96;97.96;101886.63;10440645;28;20504;-80
2024/02/01 22:24:58;;;;;;;27.10;6.00;;;;;;;3.85;97.36;101884.28;10439057;28;20060;-83
2024/02/01 22:30:01;;;;;;;24.35;5.80;;;;;;;4.00;95.97;101890.06;10433583;28;20045;-82
2024/02/01 22:35:06;;;;;;;29.10;6.82;;;;;;;4.00;95.48;101869.66;10426152;28;20126;-81
2024/02/01 22:40:10;;;;;;;24.83;6.93;;;;;;;4.28;93.77;101869.69;10464615;28;20045;-82
2024/02/01 22:45:13;;;;;;;23.73;6.57;;;;;;;4.01;95.73;101865.22;10465905;28;20171;-81
2024/02/01 22:50:18;;;;;;;36.63;7.95;;;;;;;4.06;95.92;101856.19;10458922;28;20056;-78
2024/02/01 22:55:21;;;;;;;24.10;5.88;;;;;;;3.91;97.37;101859.31;10466200;28;20171;-83
2024/02/01 23:00:26;;;;;;;34.58;9.02;;;;;;;4.20;97.36;101857.53;10452648;28;20048;-82
2024/02/01 23:05:30;;;;;;;33.45;7.40;;;;;;;4.11;97.18;101848.94;10430925;28;21446;-80
2024/02/01 23:10:34;;;;;;;23.58;6.45;;;;;;;3.85;100.00;101852.38;10448944;28;20049;-80
2024/02/01 23:15:37;;;;;;;30.23;7.35;;;;;;;3.63;100.00;101838.84;10455212;28;20104;-81
2024/02/01 23:20:41;;;;;;;35.72;8.30;;;;;;;3.47;100.00;101845.50;10427288;28;20064;-80
2024/02/01 23:25:45;;;;;;;22.40;6.35;;;;;;;3.69;100.00;101837.78;10440503;28;20117;-82
2024/02/01 23:30:48;;;;;;;26.38;7.68;;;;;;;3.67;100.00;101829.00;10435084;28;20059;-80
2024/02/01 23:35:52;;;;;;;26.58;4.65;;;;;;;3.43;100.00;101815.50;10439380;28;20767;-81
2024/02/01 23:40:56;;;;;;;23.90;4.75;;;;;;;3.28;100.00;101821.25;10446803;28;20889;-82
2024/02/01 23:45:59;;;;;;;29.05;7.00;;;;;;;3.55;100.00;101808.97;10440208;28;20041;-82
2024/02/01 23:51:03;;;;;;;22.17;6.10;;;;;;;3.39;100.00;101812.97;10430962;28;20420;-82
2024/02/01 23:56:08;;;;;;;22.40;5.80;;;;;;;3.17;100.00;101804.72;10437878;28;20084;-81
